sensor_id;sensor_type;location;lat;lon;timestamp;temperature;humidity
2389;DHT22;1205;47.984;7.668;2022-12-07T00:01:35;5.20;99.90
2389;DHT22;1205;47.984;7.668;2022-12-07T00:04:02;5.20;99.90
2389;DHT22;1205;47.984;7.668;2022-12-07T00:06:33;5.20;99.90
2389;DHT22;1205;47.984;7.668;2022-12-07T00:08:59;5.30;99.90
2389;DHT22;1205;47.984;7.668;2022-12-07T00:11:25;5.30;99.90
2389;DHT22;1205;47.984;7.668;2022-12-07T00:13:56;5.30;99.90
2389;DHT22;1205;47.984;7.668;2022-12-07T00:16:23;5.30;99.90
2389;DHT22;1205;47.984;7.668;2022-12-07T00:18:49;5.20;99.90
2389;DHT22;1205;47.984;7.668;2022-12-07T00:21:18;5.30;99.90
2389;DHT22;1205;47.984;7.668;2022-12-07T00:23:45;5.30;99.90
2389;DHT22;1205;47.984;7.668;2022-12-07T00:26:16;5.30;99.90
2389;DHT22;1205;47.984;7.668;2022-12-07T00:28:48;5.30;99.90
2389;DHT22;1205;47.984;7.668;2022-12-07T00:31:16;5.30;99.90
2389;DHT22;1205;47.984;7.668;2022-12-07T00:33:42;5.20;99.90
2389;DHT22;1205;47.984;7.668;2022-12-07T00:36:13;5.20;99.90
2389;DHT22;1205;47.984;7.668;2022-12-07T00:38:40;5.20;99.90
2389;DHT22;1205;47.984;7.668;2022-12-07T00:41:12;5.20;99.90
2389;DHT22;1205;47.984;7.668;2022-12-07T00:43:38;5.20;99.90
2389;DHT22;1205;47.984;7.668;2022-12-07T00:46:04;5.20;99.90
2389;DHT22;1205;47.984;7.668;2022-12-07T00:48:30;5.10;99.90
2389;DHT22;1205;47.984;7.668;2022-12-07T00:50:56;5.20;99.90
2389;DHT22;1205;47.984;7.668;2022-12-07T00:53:21;5.20;99.90
2389;DHT22;1205;47.984;7.668;2022-12-07T00:55:47;5.30;99.90
2389;DHT22;1205;47.984;7.668;2022-12-07T00:58:13;5.40;99.90
2389;DHT22;1205;47.984;7.668;2022-12-07T01:00:41;5.40;99.90
2389;DHT22;1205;47.984;7.668;2022-12-07T01:03:10;5.40;99.90
2389;DHT22;1205;47.984;7.668;2022-12-07T01:05:36;5.50;99.90
2389;DHT22;1205;47.984;7.668;2022-12-07T01:08:02;5.50;99.90
2389;DHT22;1205;47.984;7.668;2022-12-07T01:10:28;5.50;99.90
2389;DHT22;1205;47.984;7.668;2022-12-07T01:12:55;5.40;99.90
2389;DHT22;1205;47.984;7.668;2022-12-07T01:15:21;5.40;99.90
2389;DHT22;1205;47.984;7.668;2022-12-07T01:17:46;5.40;99.90
2389;DHT22;1205;47.984;7.668;2022-12-07T01:20:12;5.40;99.90
2389;DHT22;1205;47.984;7.668;2022-12-07T01:22:39;5.40;99.90
2389;DHT22;1205;47.984;7.668;2022-12-07T01:25:07;5.40;99.90
2389;DHT22;1205;47.984;7.668;2022-12-07T01:27:34;5.40;99.90
2389;DHT22;1205;47.984;7.668;2022-12-07T01:30:00;5.40;99.90
2389;DHT22;1205;47.984;7.668;2022-12-07T01:32:25;5.40;99.90
2389;DHT22;1205;47.984;7.668;2022-12-07T01:34:51;5.50;99.90
2389;DHT22;1205;47.984;7.668;2022-12-07T01:37:17;5.50;99.90
2389;DHT22;1205;47.984;7.668;2022-12-07T01:39:42;5.60;99.90
2389;DHT22;1205;47.984;7.668;2022-12-07T01:42:11;5.50;99.90
2389;DHT22;1205;47.984;7.668;2022-12-07T01:47:41;5.40;99.90
2389;DHT22;1205;47.984;7.668;2022-12-07T01:50:08;5.30;99.90
2389;DHT22;1205;47.984;7.668;2022-12-07T01:52:36;5.40;99.90
2389;DHT22;1205;47.984;7.668;2022-12-07T01:55:07;5.30;99.90
2389;DHT22;1205;47.984;7.668;2022-12-07T01:57:35;5.40;99.90
2389;DHT22;1205;47.984;7.668;2022-12-07T02:00:05;5.40;99.90
2389;DHT22;1205;47.984;7.668;2022-12-07T02:02:35;5.50;99.90
2389;DHT22;1205;47.984;7.668;2022-12-07T02:05:04;5.40;99.90
2389;DHT22;1205;47.984;7.668;2022-12-07T02:07:31;5.40;99.90
2389;DHT22;1205;47.984;7.668;2022-12-07T02:10:19;5.40;99.90
2389;DHT22;1205;47.984;7.668;2022-12-07T02:12:48;5.40;99.90
2389;DHT22;1205;47.984;7.668;2022-12-07T02:15:15;5.30;99.90
2389;DHT22;1205;47.984;7.668;2022-12-07T02:25:31;5.10;99.90
2389;DHT22;1205;47.984;7.668;2022-12-07T02:30:40;5.20;99.90
2389;DHT22;1205;47.984;7.668;2022-12-07T02:33:23;5.20;99.90
2389;DHT22;1205;47.984;7.668;2022-12-07T02:36:04;5.20;99.90
2389;DHT22;1205;47.984;7.668;2022-12-07T02:38:37;5.10;99.90
2389;DHT22;1205;47.984;7.668;2022-12-07T02:41:16;5.10;99.90
2389;DHT22;1205;47.984;7.668;2022-12-07T02:44:09;5.10;99.90
2389;DHT22;1205;47.984;7.668;2022-12-07T02:46:42;5.20;99.90
2389;DHT22;1205;47.984;7.668;2022-12-07T02:49:10;5.20;99.90
2389;DHT22;1205;47.984;7.668;2022-12-07T02:51:41;5.10;99.90
2389;DHT22;1205;47.984;7.668;2022-12-07T02:54:18;5.20;99.90
2389;DHT22;1205;47.984;7.668;2022-12-07T03:07:24;5.00;99.90
2389;DHT22;1205;47.984;7.668;2022-12-07T03:10:14;4.90;99.90
2389;DHT22;1205;47.984;7.668;2022-12-07T03:15:59;4.90;99.90
2389;DHT22;1205;47.984;7.668;2022-12-07T03:18:30;4.90;99.90
2389;DHT22;1205;47.984;7.668;2022-12-07T03:21:02;4.90;99.90
2389;DHT22;1205;47.984;7.668;2022-12-07T03:23:30;4.90;99.90
2389;DHT22;1205;47.984;7.668;2022-12-07T03:25:59;5.00;99.90
2389;DHT22;1205;47.984;7.668;2022-12-07T03:28:31;4.90;99.90
2389;DHT22;1205;47.984;7.668;2022-12-07T03:33:31;4.90;99.90
2389;DHT22;1205;47.984;7.668;2022-12-07T03:36:11;4.90;99.90
2389;DHT22;1205;47.984;7.668;2022-12-07T03:39:00;5.00;99.90
2389;DHT22;1205;47.984;7.668;2022-12-07T03:41:31;5.00;99.90
2389;DHT22;1205;47.984;7.668;2022-12-07T03:43:58;5.00;99.90
2389;DHT22;1205;47.984;7.668;2022-12-07T03:46:42;5.00;99.90
2389;DHT22;1205;47.984;7.668;2022-12-07T03:49:26;5.10;99.90
2389;DHT22;1205;47.984;7.668;2022-12-07T03:52:23;5.10;99.90
2389;DHT22;1205;47.984;7.668;2022-12-07T03:57:23;5.10;99.90
2389;DHT22;1205;47.984;7.668;2022-12-07T03:59:50;5.10;99.90
2389;DHT22;1205;47.984;7.668;2022-12-07T04:02:16;5.10;99.90
2389;DHT22;1205;47.984;7.668;2022-12-07T04:04:43;5.10;99.90
2389;DHT22;1205;47.984;7.668;2022-12-07T04:07:09;5.00;99.90
2389;DHT22;1205;47.984;7.668;2022-12-07T04:09:34;5.00;99.90
2389;DHT22;1205;47.984;7.668;2022-12-07T04:12:00;5.10;99.90
2389;DHT22;1205;47.984;7.668;2022-12-07T04:14:25;5.00;99.90
2389;DHT22;1205;47.984;7.668;2022-12-07T04:16:56;5.10;99.90
2389;DHT22;1205;47.984;7.668;2022-12-07T04:19:24;5.10;99.90
2389;DHT22;1205;47.984;7.668;2022-12-07T04:21:50;5.10;99.90
2389;DHT22;1205;47.984;7.668;2022-12-07T04:24:16;5.10;99.90
2389;DHT22;1205;47.984;7.668;2022-12-07T04:26:42;5.00;99.90
2389;DHT22;1205;47.984;7.668;2022-12-07T04:29:09;5.00;99.90
2389;DHT22;1205;47.984;7.668;2022-12-07T04:31:36;4.90;99.90
2389;DHT22;1205;47.984;7.668;2022-12-07T04:34:01;5.00;99.90
2389;DHT22;1205;47.984;7.668;2022-12-07T04:36:27;4.90;99.90
2389;DHT22;1205;47.984;7.668;2022-12-07T04:38:54;4.90;99.90
2389;DHT22;1205;47.984;7.668;2022-12-07T04:41:21;4.90;99.90
2389;DHT22;1205;47.984;7.668;2022-12-07T04:43:55;4.90;99.90
2389;DHT22;1205;47.984;7.668;2022-12-07T04:46:22;4.80;99.90
2389;DHT22;1205;47.984;7.668;2022-12-07T04:48:49;4.80;99.90
2389;DHT22;1205;47.984;7.668;2022-12-07T04:51:28;4.80;99.90
2389;DHT22;1205;47.984;7.668;2022-12-07T04:53:54;4.90;99.90
2389;DHT22;1205;47.984;7.668;2022-12-07T04:56:20;4.80;99.90
2389;DHT22;1205;47.984;7.668;2022-12-07T04:58:47;4.80;99.90
2389;DHT22;1205;47.984;7.668;2022-12-07T05:01:14;4.70;99.90
2389;DHT22;1205;47.984;7.668;2022-12-07T05:03:40;5.20;99.90
2389;DHT22;1205;47.984;7.668;2022-12-07T05:06:06;5.70;99.90
2389;DHT22;1205;47.984;7.668;2022-12-07T05:08:33;5.30;99.90
2389;DHT22;1205;47.984;7.668;2022-12-07T05:10:59;5.10;99.90
2389;DHT22;1205;47.984;7.668;2022-12-07T05:13:25;5.00;99.90
2389;DHT22;1205;47.984;7.668;2022-12-07T05:15:51;4.90;99.90
2389;DHT22;1205;47.984;7.668;2022-12-07T05:18:16;4.70;99.90
2389;DHT22;1205;47.984;7.668;2022-12-07T05:20:42;4.60;99.90
2389;DHT22;1205;47.984;7.668;2022-12-07T05:23:08;4.50;99.90
2389;DHT22;1205;47.984;7.668;2022-12-07T05:25:34;4.50;99.90
2389;DHT22;1205;47.984;7.668;2022-12-07T05:28:00;4.50;99.90
2389;DHT22;1205;47.984;7.668;2022-12-07T05:30:26;4.50;99.90
2389;DHT22;1205;47.984;7.668;2022-12-07T05:32:52;4.50;99.90
2389;DHT22;1205;47.984;7.668;2022-12-07T05:35:18;4.50;99.90
2389;DHT22;1205;47.984;7.668;2022-12-07T05:37:44;4.50;99.90
2389;DHT22;1205;47.984;7.668;2022-12-07T05:40:10;4.60;99.90
2389;DHT22;1205;47.984;7.668;2022-12-07T05:42:37;4.60;99.90
2389;DHT22;1205;47.984;7.668;2022-12-07T05:45:03;4.50;99.90
2389;DHT22;1205;47.984;7.668;2022-12-07T05:47:29;4.50;99.90
2389;DHT22;1205;47.984;7.668;2022-12-07T05:49:54;4.50;99.90
2389;DHT22;1205;47.984;7.668;2022-12-07T05:52:20;4.50;99.90
2389;DHT22;1205;47.984;7.668;2022-12-07T05:54:45;4.40;99.90
2389;DHT22;1205;47.984;7.668;2022-12-07T05:57:11;4.30;99.90
2389;DHT22;1205;47.984;7.668;2022-12-07T05:59:37;4.20;99.90
2389;DHT22;1205;47.984;7.668;2022-12-07T06:02:03;4.20;99.90
2389;DHT22;1205;47.984;7.668;2022-12-07T06:04:35;4.10;99.90
2389;DHT22;1205;47.984;7.668;2022-12-07T06:07:02;4.20;99.90
2389;DHT22;1205;47.984;7.668;2022-12-07T06:09:28;4.10;99.90
2389;DHT22;1205;47.984;7.668;2022-12-07T06:11:55;4.10;99.90
2389;DHT22;1205;47.984;7.668;2022-12-07T06:14:40;4.00;99.90
2389;DHT22;1205;47.984;7.668;2022-12-07T06:17:06;3.90;99.90
2389;DHT22;1205;47.984;7.668;2022-12-07T06:19:32;3.90;99.90
2389;DHT22;1205;47.984;7.668;2022-12-07T06:21:58;3.90;99.90
2389;DHT22;1205;47.984;7.668;2022-12-07T06:24:24;4.00;99.90
2389;DHT22;1205;47.984;7.668;2022-12-07T06:26:50;3.90;99.90
2389;DHT22;1205;47.984;7.668;2022-12-07T06:29:16;3.80;99.90
2389;DHT22;1205;47.984;7.668;2022-12-07T06:31:42;3.80;99.90
2389;DHT22;1205;47.984;7.668;2022-12-07T06:34:16;3.70;99.90
2389;DHT22;1205;47.984;7.668;2022-12-07T06:36:43;3.60;99.90
2389;DHT22;1205;47.984;7.668;2022-12-07T06:39:09;3.60;99.90
2389;DHT22;1205;47.984;7.668;2022-12-07T06:41:36;3.50;99.90
2389;DHT22;1205;47.984;7.668;2022-12-07T06:44:03;3.50;99.90
2389;DHT22;1205;47.984;7.668;2022-12-07T06:46:29;3.40;99.90
2389;DHT22;1205;47.984;7.668;2022-12-07T06:48:55;3.40;99.90
2389;DHT22;1205;47.984;7.668;2022-12-07T06:51:20;3.40;99.90
2389;DHT22;1205;47.984;7.668;2022-12-07T06:53:46;3.40;99.90
2389;DHT22;1205;47.984;7.668;2022-12-07T06:56:12;3.30;99.90
2389;DHT22;1205;47.984;7.668;2022-12-07T06:58:38;3.20;99.90
2389;DHT22;1205;47.984;7.668;2022-12-07T07:01:15;3.10;99.90
2389;DHT22;1205;47.984;7.668;2022-12-07T07:03:40;3.10;99.90
2389;DHT22;1205;47.984;7.668;2022-12-07T07:06:07;3.10;99.90
2389;DHT22;1205;47.984;7.668;2022-12-07T07:08:34;3.00;99.90
2389;DHT22;1205;47.984;7.668;2022-12-07T07:10:59;3.00;99.90
2389;DHT22;1205;47.984;7.668;2022-12-07T07:13:25;3.00;99.90
2389;DHT22;1205;47.984;7.668;2022-12-07T07:15:51;3.00;99.90
2389;DHT22;1205;47.984;7.668;2022-12-07T07:18:16;3.00;99.90
2389;DHT22;1205;47.984;7.668;2022-12-07T07:20:42;2.90;99.90
2389;DHT22;1205;47.984;7.668;2022-12-07T07:23:08;2.80;99.90
2389;DHT22;1205;47.984;7.668;2022-12-07T07:25:33;2.80;99.90
2389;DHT22;1205;47.984;7.668;2022-12-07T07:27:59;2.60;99.90
2389;DHT22;1205;47.984;7.668;2022-12-07T07:30:25;2.70;99.90
2389;DHT22;1205;47.984;7.668;2022-12-07T07:32:51;2.60;99.90
2389;DHT22;1205;47.984;7.668;2022-12-07T07:35:16;2.60;99.90
2389;DHT22;1205;47.984;7.668;2022-12-07T07:37:42;2.70;99.90
2389;DHT22;1205;47.984;7.668;2022-12-07T07:40:09;2.70;99.90
2389;DHT22;1205;47.984;7.668;2022-12-07T07:42:34;2.60;99.90
2389;DHT22;1205;47.984;7.668;2022-12-07T07:45:00;2.60;99.90
2389;DHT22;1205;47.984;7.668;2022-12-07T07:47:25;2.60;99.90
2389;DHT22;1205;47.984;7.668;2022-12-07T07:49:51;2.70;99.90
2389;DHT22;1205;47.984;7.668;2022-12-07T07:52:17;2.70;99.90
2389;DHT22;1205;47.984;7.668;2022-12-07T07:54:42;2.70;99.90
2389;DHT22;1205;47.984;7.668;2022-12-07T07:57:08;2.70;99.90
2389;DHT22;1205;47.984;7.668;2022-12-07T07:59:33;2.70;99.90
2389;DHT22;1205;47.984;7.668;2022-12-07T08:01:59;2.80;99.90
2389;DHT22;1205;47.984;7.668;2022-12-07T08:04:24;2.80;99.90
2389;DHT22;1205;47.984;7.668;2022-12-07T08:06:50;2.80;99.90
2389;DHT22;1205;47.984;7.668;2022-12-07T08:09:15;2.90;99.90
2389;DHT22;1205;47.984;7.668;2022-12-07T08:11:41;3.00;99.90
2389;DHT22;1205;47.984;7.668;2022-12-07T08:14:07;3.00;99.90
2389;DHT22;1205;47.984;7.668;2022-12-07T08:16:32;3.00;99.90
2389;DHT22;1205;47.984;7.668;2022-12-07T08:18:58;3.10;99.90
2389;DHT22;1205;47.984;7.668;2022-12-07T08:21:23;3.10;99.90
2389;DHT22;1205;47.984;7.668;2022-12-07T08:23:49;3.10;99.90
2389;DHT22;1205;47.984;7.668;2022-12-07T08:26:16;3.20;99.90
2389;DHT22;1205;47.984;7.668;2022-12-07T08:28:42;3.20;99.90
2389;DHT22;1205;47.984;7.668;2022-12-07T08:31:14;3.30;99.90
2389;DHT22;1205;47.984;7.668;2022-12-07T08:33:41;3.20;99.90
2389;DHT22;1205;47.984;7.668;2022-12-07T08:36:11;3.30;99.90
2389;DHT22;1205;47.984;7.668;2022-12-07T08:38:39;3.30;99.90
2389;DHT22;1205;47.984;7.668;2022-12-07T08:41:05;3.30;99.90
2389;DHT22;1205;47.984;7.668;2022-12-07T08:43:31;3.40;99.90
2389;DHT22;1205;47.984;7.668;2022-12-07T08:46:26;3.40;99.90
2389;DHT22;1205;47.984;7.668;2022-12-07T08:49:02;3.30;99.90
2389;DHT22;1205;47.984;7.668;2022-12-07T08:51:28;3.30;99.90
2389;DHT22;1205;47.984;7.668;2022-12-07T08:53:55;3.30;99.90
2389;DHT22;1205;47.984;7.668;2022-12-07T08:56:21;3.30;99.90
2389;DHT22;1205;47.984;7.668;2022-12-07T08:58:47;3.30;99.90
2389;DHT22;1205;47.984;7.668;2022-12-07T09:01:13;3.30;99.90
2389;DHT22;1205;47.984;7.668;2022-12-07T09:03:39;3.40;99.90
2389;DHT22;1205;47.984;7.668;2022-12-07T09:06:05;3.40;99.90
2389;DHT22;1205;47.984;7.668;2022-12-07T09:08:36;3.50;99.90
2389;DHT22;1205;47.984;7.668;2022-12-07T09:11:03;3.50;99.90
2389;DHT22;1205;47.984;7.668;2022-12-07T09:13:28;3.60;99.90
2389;DHT22;1205;47.984;7.668;2022-12-07T09:15:54;3.70;99.90
2389;DHT22;1205;47.984;7.668;2022-12-07T09:18:20;3.80;99.90
2389;DHT22;1205;47.984;7.668;2022-12-07T09:20:45;3.90;99.90
2389;DHT22;1205;47.984;7.668;2022-12-07T09:23:11;3.90;99.90
2389;DHT22;1205;47.984;7.668;2022-12-07T09:25:37;4.00;99.90
2389;DHT22;1205;47.984;7.668;2022-12-07T09:28:03;4.10;99.90
2389;DHT22;1205;47.984;7.668;2022-12-07T09:30:29;4.10;99.90
2389;DHT22;1205;47.984;7.668;2022-12-07T09:32:56;4.20;99.90
2389;DHT22;1205;47.984;7.668;2022-12-07T09:35:22;4.10;99.90
2389;DHT22;1205;47.984;7.668;2022-12-07T09:37:48;4.10;99.90
2389;DHT22;1205;47.984;7.668;2022-12-07T09:40:15;4.10;99.90
2389;DHT22;1205;47.984;7.668;2022-12-07T09:42:44;4.00;99.90
2389;DHT22;1205;47.984;7.668;2022-12-07T09:45:17;3.90;99.90
2389;DHT22;1205;47.984;7.668;2022-12-07T09:47:45;3.90;99.90
2389;DHT22;1205;47.984;7.668;2022-12-07T09:50:14;4.10;99.90
2389;DHT22;1205;47.984;7.668;2022-12-07T09:52:41;5.20;99.90
2389;DHT22;1205;47.984;7.668;2022-12-07T09:55:13;6.00;99.90
2389;DHT22;1205;47.984;7.668;2022-12-07T09:57:40;6.10;99.90
2389;DHT22;1205;47.984;7.668;2022-12-07T10:00:13;6.10;99.90
2389;DHT22;1205;47.984;7.668;2022-12-07T10:02:49;6.70;99.90
2389;DHT22;1205;47.984;7.668;2022-12-07T10:05:19;6.00;99.90
2389;DHT22;1205;47.984;7.668;2022-12-07T10:07:46;5.70;99.90
2389;DHT22;1205;47.984;7.668;2022-12-07T10:10:23;5.40;99.90
2389;DHT22;1205;47.984;7.668;2022-12-07T10:12:54;5.30;99.90
2389;DHT22;1205;47.984;7.668;2022-12-07T10:15:21;5.20;99.90
2389;DHT22;1205;47.984;7.668;2022-12-07T10:17:50;5.10;99.90
2389;DHT22;1205;47.984;7.668;2022-12-07T10:20:23;5.10;99.90
2389;DHT22;1205;47.984;7.668;2022-12-07T10:25:27;5.10;99.90
2389;DHT22;1205;47.984;7.668;2022-12-07T10:30:33;5.10;99.90
2389;DHT22;1205;47.984;7.668;2022-12-07T10:32:59;5.60;99.90
2389;DHT22;1205;47.984;7.668;2022-12-07T10:35:29;6.40;99.90
2389;DHT22;1205;47.984;7.668;2022-12-07T10:37:58;6.30;99.90
2389;DHT22;1205;47.984;7.668;2022-12-07T10:40:33;6.30;99.90
2389;DHT22;1205;47.984;7.668;2022-12-07T10:45:30;7.40;99.90
2389;DHT22;1205;47.984;7.668;2022-12-07T10:48:05;7.00;99.90
2389;DHT22;1205;47.984;7.668;2022-12-07T10:56:42;6.50;99.90
2389;DHT22;1205;47.984;7.668;2022-12-07T11:01:56;6.40;99.90
2389;DHT22;1205;47.984;7.668;2022-12-07T11:04:50;6.40;99.90
2389;DHT22;1205;47.984;7.668;2022-12-07T11:08:00;6.40;99.90
2389;DHT22;1205;47.984;7.668;2022-12-07T11:18:38;6.60;99.90
2389;DHT22;1205;47.984;7.668;2022-12-07T11:24:19;6.70;99.90
2389;DHT22;1205;47.984;7.668;2022-12-07T11:32:45;7.00;99.90
2389;DHT22;1205;47.984;7.668;2022-12-07T11:40:40;7.10;99.90
2389;DHT22;1205;47.984;7.668;2022-12-07T11:43:27;7.10;99.90
2389;DHT22;1205;47.984;7.668;2022-12-07T11:46:11;7.10;99.90
2389;DHT22;1205;47.984;7.668;2022-12-07T11:48:49;7.10;99.90
2389;DHT22;1205;47.984;7.668;2022-12-07T11:51:18;7.10;99.30
2389;DHT22;1205;47.984;7.668;2022-12-07T11:53:53;7.10;99.90
2389;DHT22;1205;47.984;7.668;2022-12-07T11:56:21;7.10;98.50
2389;DHT22;1205;47.984;7.668;2022-12-07T12:01:35;7.10;98.30
2389;DHT22;1205;47.984;7.668;2022-12-07T12:04:16;7.10;98.00
2389;DHT22;1205;47.984;7.668;2022-12-07T12:06:45;6.90;97.80
2389;DHT22;1205;47.984;7.668;2022-12-07T12:09:30;6.90;98.20
2389;DHT22;1205;47.984;7.668;2022-12-07T12:20:37;7.00;99.20
2389;DHT22;1205;47.984;7.668;2022-12-07T12:25:55;7.00;99.10
2389;DHT22;1205;47.984;7.668;2022-12-07T12:33:52;7.20;98.90
2389;DHT22;1205;47.984;7.668;2022-12-07T12:46:56;7.10;99.00
2389;DHT22;1205;47.984;7.668;2022-12-07T12:54:38;7.20;99.30
2389;DHT22;1205;47.984;7.668;2022-12-07T13:08:01;7.50;99.80
2389;DHT22;1205;47.984;7.668;2022-12-07T13:10:34;7.40;99.90
2389;DHT22;1205;47.984;7.668;2022-12-07T13:34:32;7.50;99.90
2389;DHT22;1205;47.984;7.668;2022-12-07T13:37:00;7.50;99.90
2389;DHT22;1205;47.984;7.668;2022-12-07T13:39:27;7.50;99.90
2389;DHT22;1205;47.984;7.668;2022-12-07T13:41:55;7.40;99.90
2389;DHT22;1205;47.984;7.668;2022-12-07T13:44:23;7.50;99.90
2389;DHT22;1205;47.984;7.668;2022-12-07T13:49:28;7.50;99.90
2389;DHT22;1205;47.984;7.668;2022-12-07T13:52:08;7.60;99.90
2389;DHT22;1205;47.984;7.668;2022-12-07T13:55:25;7.70;99.90
2389;DHT22;1205;47.984;7.668;2022-12-07T13:57:33;7.70;99.90
2389;DHT22;1205;47.984;7.668;2022-12-07T14:00:01;7.70;99.90
2389;DHT22;1205;47.984;7.668;2022-12-07T14:02:30;7.60;99.90
2389;DHT22;1205;47.984;7.668;2022-12-07T14:05:28;7.60;99.90
2389;DHT22;1205;47.984;7.668;2022-12-07T14:08:03;7.50;99.90
2389;DHT22;1205;47.984;7.668;2022-12-07T14:10:41;7.50;99.90
2389;DHT22;1205;47.984;7.668;2022-12-07T14:13:30;7.50;99.90
2389;DHT22;1205;47.984;7.668;2022-12-07T14:15:57;7.50;99.90
2389;DHT22;1205;47.984;7.668;2022-12-07T14:21:15;7.60;99.90
2389;DHT22;1205;47.984;7.668;2022-12-07T14:23:41;7.60;99.90
2389;DHT22;1205;47.984;7.668;2022-12-07T14:28:42;7.50;99.90
2389;DHT22;1205;47.984;7.668;2022-12-07T14:31:12;7.50;99.90
2389;DHT22;1205;47.984;7.668;2022-12-07T14:33:41;7.50;99.90
2389;DHT22;1205;47.984;7.668;2022-12-07T14:36:14;7.50;99.90
2389;DHT22;1205;47.984;7.668;2022-12-07T14:38:40;7.50;99.90
2389;DHT22;1205;47.984;7.668;2022-12-07T14:41:13;7.50;99.90
2389;DHT22;1205;47.984;7.668;2022-12-07T14:43:59;7.50;99.90
2389;DHT22;1205;47.984;7.668;2022-12-07T14:46:25;7.50;99.90
2389;DHT22;1205;47.984;7.668;2022-12-07T14:48:50;7.40;99.90
2389;DHT22;1205;47.984;7.668;2022-12-07T14:51:16;7.40;99.90
2389;DHT22;1205;47.984;7.668;2022-12-07T14:53:47;7.30;99.90
2389;DHT22;1205;47.984;7.668;2022-12-07T14:56:13;7.30;99.90
2389;DHT22;1205;47.984;7.668;2022-12-07T14:58:40;7.30;99.90
2389;DHT22;1205;47.984;7.668;2022-12-07T15:01:05;7.30;99.90
2389;DHT22;1205;47.984;7.668;2022-12-07T15:03:31;7.20;99.90
2389;DHT22;1205;47.984;7.668;2022-12-07T15:05:56;7.20;99.90
2389;DHT22;1205;47.984;7.668;2022-12-07T15:08:22;7.20;99.90
2389;DHT22;1205;47.984;7.668;2022-12-07T15:10:48;7.10;99.90
2389;DHT22;1205;47.984;7.668;2022-12-07T15:13:13;7.00;99.90
2389;DHT22;1205;47.984;7.668;2022-12-07T15:15:58;6.90;99.90
2389;DHT22;1205;47.984;7.668;2022-12-07T15:18:24;6.80;99.90
2389;DHT22;1205;47.984;7.668;2022-12-07T15:20:50;6.80;99.90
2389;DHT22;1205;47.984;7.668;2022-12-07T15:23:15;6.70;99.90
2389;DHT22;1205;47.984;7.668;2022-12-07T15:25:42;6.60;99.90
2389;DHT22;1205;47.984;7.668;2022-12-07T15:28:07;6.60;99.90
2389;DHT22;1205;47.984;7.668;2022-12-07T15:30:33;6.50;99.90
2389;DHT22;1205;47.984;7.668;2022-12-07T15:32:59;6.40;99.90
2389;DHT22;1205;47.984;7.668;2022-12-07T15:35:24;6.40;99.90
2389;DHT22;1205;47.984;7.668;2022-12-07T15:37:50;6.20;99.90
2389;DHT22;1205;47.984;7.668;2022-12-07T15:40:16;6.20;99.90
2389;DHT22;1205;47.984;7.668;2022-12-07T15:42:41;6.10;99.90
2389;DHT22;1205;47.984;7.668;2022-12-07T15:45:08;6.00;99.90
2389;DHT22;1205;47.984;7.668;2022-12-07T15:47:40;5.90;99.90
2389;DHT22;1205;47.984;7.668;2022-12-07T15:50:09;5.90;99.90
2389;DHT22;1205;47.984;7.668;2022-12-07T15:52:35;5.80;99.90
2389;DHT22;1205;47.984;7.668;2022-12-07T15:55:01;5.70;99.90
2389;DHT22;1205;47.984;7.668;2022-12-07T15:57:32;5.60;99.90
2389;DHT22;1205;47.984;7.668;2022-12-07T15:59:58;5.50;99.90
2389;DHT22;1205;47.984;7.668;2022-12-07T16:02:24;5.50;99.90
2389;DHT22;1205;47.984;7.668;2022-12-07T16:04:50;5.50;99.90
2389;DHT22;1205;47.984;7.668;2022-12-07T16:07:16;5.40;99.90
2389;DHT22;1205;47.984;7.668;2022-12-07T16:09:43;5.30;99.90
2389;DHT22;1205;47.984;7.668;2022-12-07T16:12:10;5.30;99.90
2389;DHT22;1205;47.984;7.668;2022-12-07T16:14:36;5.20;99.90
2389;DHT22;1205;47.984;7.668;2022-12-07T16:17:02;5.20;99.90
2389;DHT22;1205;47.984;7.668;2022-12-07T16:19:30;5.20;99.90
2389;DHT22;1205;47.984;7.668;2022-12-07T16:21:55;5.30;99.90
2389;DHT22;1205;47.984;7.668;2022-12-07T16:24:21;5.20;99.90
2389;DHT22;1205;47.984;7.668;2022-12-07T16:26:47;5.20;99.90
2389;DHT22;1205;47.984;7.668;2022-12-07T16:29:13;5.20;99.90
2389;DHT22;1205;47.984;7.668;2022-12-07T16:31:39;5.20;99.90
2389;DHT22;1205;47.984;7.668;2022-12-07T16:34:05;5.10;99.90
2389;DHT22;1205;47.984;7.668;2022-12-07T16:36:31;5.10;99.90
2389;DHT22;1205;47.984;7.668;2022-12-07T16:38:59;5.10;99.90
2389;DHT22;1205;47.984;7.668;2022-12-07T16:41:24;5.10;99.90
2389;DHT22;1205;47.984;7.668;2022-12-07T16:43:50;4.90;99.90
2389;DHT22;1205;47.984;7.668;2022-12-07T16:46:16;4.80;99.90
2389;DHT22;1205;47.984;7.668;2022-12-07T16:48:42;4.80;99.90
2389;DHT22;1205;47.984;7.668;2022-12-07T16:51:10;4.70;99.90
2389;DHT22;1205;47.984;7.668;2022-12-07T16:53:37;4.60;99.90
2389;DHT22;1205;47.984;7.668;2022-12-07T16:56:05;4.60;99.90
2389;DHT22;1205;47.984;7.668;2022-12-07T16:58:34;4.60;99.90
2389;DHT22;1205;47.984;7.668;2022-12-07T17:01:07;4.50;99.90
2389;DHT22;1205;47.984;7.668;2022-12-07T17:03:33;4.50;99.90
2389;DHT22;1205;47.984;7.668;2022-12-07T17:05:58;4.50;99.90
2389;DHT22;1205;47.984;7.668;2022-12-07T17:08:24;4.50;99.90
2389;DHT22;1205;47.984;7.668;2022-12-07T17:10:49;4.50;99.90
2389;DHT22;1205;47.984;7.668;2022-12-07T17:13:15;4.50;99.90
2389;DHT22;1205;47.984;7.668;2022-12-07T17:16:02;4.40;99.90
2389;DHT22;1205;47.984;7.668;2022-12-07T17:18:31;4.40;99.90
2389;DHT22;1205;47.984;7.668;2022-12-07T17:21:05;4.20;99.90
2389;DHT22;1205;47.984;7.668;2022-12-07T17:23:31;4.10;99.90
2389;DHT22;1205;47.984;7.668;2022-12-07T17:26:05;4.10;99.90
2389;DHT22;1205;47.984;7.668;2022-12-07T17:28:31;4.10;99.90
2389;DHT22;1205;47.984;7.668;2022-12-07T17:30:57;4.10;99.90
2389;DHT22;1205;47.984;7.668;2022-12-07T17:33:22;4.10;99.90
2389;DHT22;1205;47.984;7.668;2022-12-07T17:35:48;4.10;99.90
2389;DHT22;1205;47.984;7.668;2022-12-07T17:38:13;4.10;99.90
2389;DHT22;1205;47.984;7.668;2022-12-07T17:40:39;4.10;99.90
2389;DHT22;1205;47.984;7.668;2022-12-07T17:43:04;4.20;99.90
2389;DHT22;1205;47.984;7.668;2022-12-07T17:45:30;4.20;99.90
2389;DHT22;1205;47.984;7.668;2022-12-07T17:47:56;4.10;99.90
2389;DHT22;1205;47.984;7.668;2022-12-07T17:50:21;4.20;99.90
2389;DHT22;1205;47.984;7.668;2022-12-07T17:53:10;4.20;99.90
2389;DHT22;1205;47.984;7.668;2022-12-07T17:55:35;4.20;99.90
2389;DHT22;1205;47.984;7.668;2022-12-07T17:58:01;4.20;99.90
2389;DHT22;1205;47.984;7.668;2022-12-07T18:00:26;4.20;99.90
2389;DHT22;1205;47.984;7.668;2022-12-07T18:02:52;4.20;99.90
2389;DHT22;1205;47.984;7.668;2022-12-07T18:05:17;4.20;99.90
2389;DHT22;1205;47.984;7.668;2022-12-07T18:07:43;4.20;99.90
2389;DHT22;1205;47.984;7.668;2022-12-07T18:10:09;4.20;99.90
2389;DHT22;1205;47.984;7.668;2022-12-07T18:12:37;4.10;99.90
2389;DHT22;1205;47.984;7.668;2022-12-07T18:15:03;4.10;99.90
2389;DHT22;1205;47.984;7.668;2022-12-07T18:17:28;4.00;99.90
2389;DHT22;1205;47.984;7.668;2022-12-07T18:19:54;3.90;99.90
2389;DHT22;1205;47.984;7.668;2022-12-07T18:22:19;4.00;99.90
2389;DHT22;1205;47.984;7.668;2022-12-07T18:24:45;4.00;99.90
2389;DHT22;1205;47.984;7.668;2022-12-07T18:27:10;3.90;99.90
2389;DHT22;1205;47.984;7.668;2022-12-07T18:29:36;3.90;99.90
2389;DHT22;1205;47.984;7.668;2022-12-07T18:32:02;3.90;99.90
2389;DHT22;1205;47.984;7.668;2022-12-07T18:34:29;3.90;99.90
2389;DHT22;1205;47.984;7.668;2022-12-07T18:36:55;3.90;99.90
2389;DHT22;1205;47.984;7.668;2022-12-07T18:39:20;3.80;99.90
2389;DHT22;1205;47.984;7.668;2022-12-07T18:41:46;3.80;99.90
2389;DHT22;1205;47.984;7.668;2022-12-07T18:44:13;3.80;99.90
2389;DHT22;1205;47.984;7.668;2022-12-07T18:46:39;3.80;99.90
2389;DHT22;1205;47.984;7.668;2022-12-07T18:49:07;3.80;99.90
2389;DHT22;1205;47.984;7.668;2022-12-07T18:51:33;3.80;99.90
2389;DHT22;1205;47.984;7.668;2022-12-07T18:53:59;3.70;99.90